Accueil
METAR-TAF:

METAR-TAF

Aéroports :

Aéroport international de Piarco

Port-d'Espagne, Trinité, Trinité-et-Tobago

latitude: 10-37N, longitude: 061-21W, altitude: 12 m

Observation

Le bulletin a été fait il y a 25 minutes, à 15:00 UTC
Vent 11 kt de est/sud-est
Température 31°C
Humidité 66%
Pression 1016 hPa
Visibilité 10 km ou plus
Nuages fragmentés à une hauteur de 2500 ft

METAR: TTPP 161500Z 11011KT 9999 BKN025 31/24 Q1016 NOSIG

Heure: 11:25 (15:25 UTC)

Prévision

Le bulletin a été fait il y a 5 heures et 25 minutes, à 10:00 UTC
Prévision valable du 16 à 12 UTC au 17 à 12 UTC
Vent 10 kt de est/sud-est
Visibilité 10 km ou plus
Nuages épars à une hauteur de 2000 ft
Evoluant progressivement
du 16 à 23 UTC au 17 à 01 UTC
Vent kt de nord

TAF: TTPP 161000Z 1612/1712 11010KT 9999 SCT020 BECMG 1623/1701 00000KT

Observations et prévisions météorologiques de plus de 4000 aéroports (messages METAR et TAF).

Les stations disponibles sont représentées par des disques jaunes et rouges sur la carte.

Passer la souris dessus pour voir le nom de la station.

Cliquer dessus pour voir les observations et prévisions météorologiques.

Pour changer de carte: cliquez sur les boutons verts avec une croix noire pour zoomer, sur le bouton vert avec un tiret pour effectuer un zoom arrière, ou sur les flèches vertes pour les cartes adjacentes.


METAR-TAF: